createdAt,value
2022-10-13T00:01:10.771Z,6.78
2022-10-13T00:03:39.983Z,6.45
2022-10-13T00:06:10.491Z,6.65
2022-10-13T00:08:40.520Z,5.88
2022-10-13T00:11:12.835Z,6.00
2022-10-13T00:13:41.520Z,6.47
2022-10-13T00:16:10.631Z,5.72
2022-10-13T00:18:38.694Z,6.10
2022-10-13T00:21:08.794Z,5.63
2022-10-13T00:23:36.924Z,6.43
2022-10-13T00:26:08.610Z,6.20
2022-10-13T00:28:37.120Z,5.70
2022-10-13T00:31:05.562Z,6.18
2022-10-13T00:33:33.336Z,6.10
2022-10-13T00:36:01.046Z,6.10
2022-10-13T00:38:28.785Z,7.00
2022-10-13T00:40:57.816Z,6.10
2022-10-13T00:43:28.765Z,6.70
2022-10-13T00:45:56.461Z,6.07
2022-10-13T00:48:27.755Z,5.68
2022-10-13T00:50:56.911Z,6.93
2022-10-13T00:53:28.503Z,5.70
2022-10-13T00:55:56.847Z,5.55
2022-10-13T00:58:31.293Z,5.40
2022-10-13T01:01:00.305Z,5.75
2022-10-13T01:03:28.387Z,6.30
2022-10-13T01:06:00.013Z,5.38
2022-10-13T01:08:29.071Z,5.45
2022-10-13T01:11:03.556Z,5.90
2022-10-13T01:13:39.499Z,5.95
2022-10-13T01:16:14.103Z,5.30
2022-10-13T01:18:50.007Z,6.40
2022-10-13T01:21:25.918Z,4.70
2022-10-13T01:24:35.330Z,5.70
2022-10-13T01:27:11.446Z,4.93
2022-10-13T01:30:06.644Z,5.25
2022-10-13T01:32:47.506Z,5.30
2022-10-13T01:35:21.813Z,5.57
2022-10-13T01:37:56.355Z,5.57
2022-10-13T01:40:28.414Z,6.03
2022-10-13T01:42:59.971Z,5.55
2022-10-13T01:45:35.118Z,5.40
2022-10-13T01:48:05.924Z,5.22
2022-10-13T01:50:37.358Z,5.95
2022-10-13T01:53:08.425Z,5.20
2022-10-13T01:55:36.246Z,4.90
2022-10-13T01:58:04.049Z,5.63
2022-10-13T02:00:44.593Z,5.10
2022-10-13T02:03:18.811Z,4.57
2022-10-13T02:05:51.063Z,4.95
2022-10-13T02:08:26.430Z,5.25
2022-10-13T02:11:00.044Z,4.30
2022-10-13T02:13:30.988Z,5.22
2022-10-13T02:16:02.724Z,5.70
2022-10-13T02:18:34.332Z,4.60
2022-10-13T02:21:03.717Z,4.70
2022-10-13T02:23:33.067Z,4.53
2022-10-13T02:26:01.319Z,4.20
2022-10-13T02:28:29.896Z,5.97
2022-10-13T02:30:58.087Z,5.35
2022-10-13T02:33:27.234Z,5.90
2022-10-13T02:35:55.036Z,4.75
2022-10-13T02:38:22.959Z,4.82
2022-10-13T02:40:50.723Z,4.93
2022-10-13T02:43:18.656Z,4.68
2022-10-13T02:45:46.403Z,4.97
2022-10-13T02:48:14.201Z,5.07
2022-10-13T02:50:47.695Z,4.80
2022-10-13T02:53:15.600Z,4.93
2022-10-13T02:55:43.364Z,5.00
2022-10-13T02:58:11.255Z,5.10
2022-10-13T03:00:39.733Z,4.88
2022-10-13T03:03:07.729Z,4.55
2022-10-13T03:05:35.557Z,5.07
2022-10-13T03:08:04.775Z,4.88
2022-10-13T03:10:33.062Z,4.30
2022-10-13T03:13:00.912Z,4.35
2022-10-13T03:15:28.796Z,5.43
2022-10-13T03:17:56.627Z,4.78
2022-10-13T03:20:24.516Z,4.43
2022-10-13T03:22:53.045Z,4.55
2022-10-13T03:25:22.107Z,4.90
2022-10-13T03:27:49.868Z,4.10
2022-10-13T03:30:17.710Z,3.90
2022-10-13T03:32:45.624Z,4.90
2022-10-13T03:35:13.347Z,4.35
2022-10-13T03:37:41.152Z,4.63
2022-10-13T03:40:10.906Z,4.30
2022-10-13T03:42:40.619Z,4.53
2022-10-13T03:45:10.725Z,4.40
2022-10-13T03:47:38.525Z,4.40
2022-10-13T03:50:07.351Z,5.40
2022-10-13T03:52:35.298Z,5.20
2022-10-13T03:55:03.453Z,4.80
2022-10-13T03:57:31.186Z,4.13
2022-10-13T04:00:00.507Z,4.57
2022-10-13T04:02:28.574Z,4.22
2022-10-13T04:04:56.687Z,4.82
2022-10-13T04:07:24.525Z,4.40
2022-10-13T04:09:52.277Z,4.57
2022-10-13T04:12:21.221Z,4.80
2022-10-13T04:14:49.130Z,4.68
2022-10-13T04:17:18.265Z,4.25
2022-10-13T04:19:46.082Z,4.30
2022-10-13T04:22:13.922Z,4.50
2022-10-13T04:24:41.857Z,5.00
2022-10-13T04:27:10.132Z,4.28
2022-10-13T04:29:38.181Z,4.38
2022-10-13T04:32:06.441Z,4.90
2022-10-13T04:34:35.600Z,4.30
2022-10-13T04:37:03.343Z,3.97
2022-10-13T04:39:31.294Z,4.38
2022-10-13T04:41:59.102Z,3.50
2022-10-13T04:44:26.850Z,3.97
2022-10-13T04:46:54.590Z,4.97
2022-10-13T04:49:22.318Z,4.40
2022-10-13T04:51:51.523Z,4.70
2022-10-13T04:54:19.291Z,4.88
2022-10-13T04:56:47.060Z,4.68
2022-10-13T04:59:14.860Z,4.68
2022-10-13T05:01:43.015Z,4.57
2022-10-13T05:04:11.435Z,4.43
2022-10-13T05:07:05.359Z,4.85
2022-10-13T05:09:30.554Z,5.78
2022-10-13T05:11:58.343Z,4.30
2022-10-13T05:14:26.340Z,4.22
2022-10-13T05:16:54.183Z,4.38
2022-10-13T05:19:21.903Z,5.10
2022-10-13T05:21:49.651Z,4.70
2022-10-13T05:24:17.354Z,4.85
2022-10-13T05:26:46.551Z,4.65
2022-10-13T05:29:14.303Z,4.70
2022-10-13T05:31:42.013Z,4.30
2022-10-13T05:34:10.415Z,6.05
2022-10-13T05:36:38.212Z,4.82
2022-10-13T05:39:08.406Z,5.03
2022-10-13T05:41:36.338Z,4.53
2022-10-13T05:44:09.227Z,5.63
2022-10-13T05:46:37.212Z,4.45
2022-10-13T05:49:05.728Z,4.90
2022-10-13T05:51:36.207Z,5.53
2022-10-13T05:54:07.791Z,5.05
2022-10-13T05:56:41.345Z,4.60
2022-10-13T05:59:14.483Z,5.22
2022-10-13T06:01:44.323Z,5.38
2022-10-13T06:04:16.162Z,5.05
2022-10-13T06:06:43.989Z,4.55
2022-10-13T06:09:11.957Z,5.35
2022-10-13T06:11:39.766Z,4.40
2022-10-13T06:14:07.599Z,5.75
2022-10-13T06:16:37.591Z,5.22
2022-10-13T06:19:06.092Z,5.30
2022-10-13T06:21:36.331Z,5.07
2022-10-13T06:24:04.468Z,5.20
2022-10-13T06:26:32.200Z,4.60
2022-10-13T06:29:00.190Z,4.43
2022-10-13T06:31:28.437Z,4.55
2022-10-13T06:33:57.595Z,4.70
2022-10-13T06:36:25.612Z,4.80
2022-10-13T06:38:53.358Z,4.80
2022-10-13T06:41:21.127Z,4.78
2022-10-13T06:43:49.612Z,4.22
2022-10-13T06:46:17.429Z,4.85
2022-10-13T06:48:45.181Z,4.47
2022-10-13T06:51:14.449Z,4.63
2022-10-13T06:53:42.181Z,4.47
2022-10-13T06:56:10.495Z,4.22
2022-10-13T06:58:38.643Z,5.40
2022-10-13T07:01:07.747Z,5.50
2022-10-13T07:03:35.607Z,5.28
2022-10-13T07:06:03.905Z,4.82
2022-10-13T07:08:34.500Z,4.78
2022-10-13T07:11:11.638Z,4.50
2022-10-13T07:13:46.332Z,4.30
2022-10-13T07:16:15.657Z,4.82
2022-10-13T07:18:43.432Z,4.68
2022-10-13T07:21:11.488Z,5.05
2022-10-13T07:23:40.713Z,5.28
2022-10-13T07:26:09.847Z,4.95
2022-10-13T07:28:37.812Z,6.18
2022-10-13T07:31:11.112Z,5.10
2022-10-13T07:33:39.608Z,5.22
2022-10-13T07:36:08.014Z,5.20
2022-10-13T07:38:35.893Z,5.88
2022-10-13T07:41:07.664Z,5.72
2022-10-13T07:43:35.659Z,5.28
2022-10-13T07:46:05.678Z,5.85
2022-10-13T07:48:34.173Z,5.20
2022-10-13T07:51:05.096Z,6.68
2022-10-13T07:53:32.831Z,6.07
2022-10-13T07:56:01.849Z,5.93
2022-10-13T07:58:31.012Z,6.20
2022-10-13T08:00:59.657Z,5.15
2022-10-13T08:03:28.318Z,5.88
2022-10-13T08:05:56.823Z,6.63
2022-10-13T08:08:24.595Z,6.20
2022-10-13T08:10:55.588Z,5.65
2022-10-13T08:13:23.472Z,5.50
2022-10-13T08:15:52.606Z,6.90
2022-10-13T08:18:20.379Z,5.80
2022-10-13T08:20:48.168Z,6.10
2022-10-13T08:23:15.919Z,5.60
2022-10-13T08:25:45.144Z,6.55
2022-10-13T08:28:19.171Z,6.13
2022-10-13T08:30:47.811Z,6.95
2022-10-13T08:33:17.413Z,5.57
2022-10-13T08:35:45.192Z,6.95
2022-10-13T08:38:12.939Z,7.30
2022-10-13T08:40:41.671Z,6.50
2022-10-13T08:43:10.383Z,6.30
2022-10-13T08:45:42.339Z,6.07
2022-10-13T08:48:13.858Z,6.88
2022-10-13T08:50:45.477Z,6.60
2022-10-13T08:53:18.981Z,5.97
2022-10-13T08:55:49.368Z,6.25
2022-10-13T08:58:27.070Z,6.10
2022-10-13T09:01:06.629Z,6.13
2022-10-13T09:03:43.216Z,5.55
2022-10-13T09:06:16.625Z,5.82
2022-10-13T09:08:49.978Z,5.53
2022-10-13T09:11:17.758Z,5.72
2022-10-13T09:13:45.479Z,5.28
2022-10-13T09:16:13.758Z,5.60
2022-10-13T09:18:41.685Z,5.90
2022-10-13T09:21:30.132Z,5.10
2022-10-13T09:24:08.157Z,5.63
2022-10-13T09:26:39.388Z,5.72
2022-10-13T09:29:10.247Z,5.40
2022-10-13T09:31:38.832Z,5.35
2022-10-13T09:34:24.609Z,5.07
2022-10-13T09:37:01.944Z,4.97
2022-10-13T09:39:30.703Z,4.70
2022-10-13T09:42:22.165Z,4.40
2022-10-13T09:44:58.636Z,5.00
2022-10-13T09:47:29.144Z,4.25
2022-10-13T09:50:16.016Z,4.90
2022-10-13T09:52:46.122Z,4.10
2022-10-13T09:55:32.607Z,4.97
2022-10-13T09:58:07.237Z,5.45
2022-10-13T10:00:35.339Z,4.25
2022-10-13T10:03:07.372Z,4.18
2022-10-13T10:05:45.883Z,3.95
2022-10-13T10:08:28.869Z,4.28
2022-10-13T10:11:04.407Z,3.90
2022-10-13T10:13:32.489Z,4.25
2022-10-13T10:16:06.893Z,4.43
2022-10-13T10:18:40.652Z,4.03
2022-10-13T10:21:14.657Z,4.28
2022-10-13T10:23:52.556Z,3.97
2022-10-13T10:26:27.680Z,4.82
2022-10-13T10:29:12.000Z,4.00
2022-10-13T10:31:59.078Z,3.65
2022-10-13T10:34:34.684Z,4.40
2022-10-13T10:37:15.021Z,4.10
2022-10-13T10:39:48.900Z,3.58
2022-10-13T10:42:51.237Z,3.80
2022-10-13T10:45:24.103Z,3.53
2022-10-13T10:47:54.733Z,4.20
2022-10-13T10:50:23.688Z,4.43
2022-10-13T10:52:58.773Z,3.28
2022-10-13T10:55:33.980Z,3.67
2022-10-13T10:58:13.620Z,3.85
2022-10-13T11:00:49.744Z,4.53
2022-10-13T11:03:27.604Z,3.17
2022-10-13T11:06:07.685Z,3.78
2022-10-13T11:08:42.472Z,3.92
2022-10-13T11:11:39.992Z,3.22
2022-10-13T11:14:31.383Z,3.58
2022-10-13T11:17:18.204Z,3.70
2022-10-13T11:19:47.968Z,3.58
2022-10-13T11:22:19.156Z,4.22
2022-10-13T11:24:59.254Z,5.60
2022-10-13T11:27:40.285Z,4.35
2022-10-13T11:30:50.980Z,4.82
2022-10-13T11:33:52.813Z,5.28
2022-10-13T11:36:37.961Z,4.78
2022-10-13T11:39:36.139Z,5.72
2022-10-13T11:42:17.146Z,5.22
2022-10-13T11:44:55.021Z,5.75
2022-10-13T11:47:47.274Z,4.80
2022-10-13T11:50:22.312Z,5.30
2022-10-13T11:53:04.364Z,4.40
2022-10-13T11:55:40.419Z,4.88
2022-10-13T11:58:15.596Z,4.07
2022-10-13T12:00:53.624Z,4.05
2022-10-13T12:03:22.825Z,4.10
2022-10-13T12:05:52.059Z,4.40
2022-10-13T12:08:22.029Z,3.72
2022-10-13T12:10:57.409Z,3.72
2022-10-13T12:13:28.222Z,4.15
2022-10-13T12:16:03.450Z,4.57
2022-10-13T12:18:34.231Z,3.50
2022-10-13T12:21:05.630Z,3.90
2022-10-13T12:23:33.913Z,3.10
2022-10-13T12:26:03.828Z,3.85
2022-10-13T12:28:46.985Z,3.80
2022-10-13T12:31:21.436Z,3.15
2022-10-13T12:33:54.881Z,3.88
2022-10-13T12:36:29.963Z,3.38
2022-10-13T12:39:01.941Z,3.60
2022-10-13T12:41:32.969Z,3.22
2022-10-13T12:44:04.051Z,4.18
2022-10-13T12:46:40.947Z,4.82
2022-10-13T12:49:13.683Z,3.78
2022-10-13T12:51:42.657Z,4.35
2022-10-13T12:54:19.337Z,3.80
2022-10-13T12:59:20.965Z,3.50
2022-10-13T13:02:00.193Z,3.60
2022-10-13T13:04:48.920Z,3.83
2022-10-13T13:07:33.540Z,5.55
2022-10-13T13:10:16.467Z,3.35
2022-10-13T13:12:45.248Z,3.53
2022-10-13T13:15:33.953Z,4.22
2022-10-13T13:18:37.976Z,4.18
2022-10-13T13:21:07.175Z,4.38
2022-10-13T13:23:35.891Z,3.20
2022-10-13T13:26:08.022Z,4.00
2022-10-13T13:28:35.826Z,4.00
2022-10-13T13:31:03.615Z,4.07
2022-10-13T13:33:31.465Z,3.50
2022-10-13T13:36:00.646Z,3.97
2022-10-13T13:38:28.524Z,3.47
2022-10-13T13:41:00.007Z,3.42
2022-10-13T13:43:29.270Z,3.88
2022-10-13T13:45:57.185Z,3.95
2022-10-13T13:48:26.730Z,3.38
2022-10-13T13:50:54.530Z,3.95
2022-10-13T13:53:23.690Z,3.38
2022-10-13T13:55:52.149Z,3.47
2022-10-13T13:58:20.764Z,3.90
2022-10-13T14:00:49.109Z,4.22
2022-10-13T14:03:19.394Z,4.20
2022-10-13T14:05:47.536Z,3.30
2022-10-13T14:08:15.298Z,3.40
2022-10-13T14:10:44.489Z,3.70
2022-10-13T14:13:12.378Z,4.15
2022-10-13T14:15:40.206Z,4.10
2022-10-13T14:18:08.184Z,3.70
2022-10-13T14:20:35.945Z,3.63
2022-10-13T14:23:03.852Z,4.20
2022-10-13T14:25:33.340Z,5.07
2022-10-13T14:28:02.413Z,4.90
2022-10-13T14:30:30.130Z,4.20
2022-10-13T14:32:57.888Z,3.55
2022-10-13T14:35:25.631Z,4.60
2022-10-13T14:37:53.348Z,4.43
2022-10-13T14:40:21.048Z,5.75
2022-10-13T14:42:49.061Z,5.53
2022-10-13T14:45:18.589Z,4.80
2022-10-13T14:47:46.347Z,5.18
2022-10-13T14:50:14.175Z,5.45
2022-10-13T14:52:41.872Z,6.50
2022-10-13T14:55:10.591Z,7.15
2022-10-13T14:57:38.351Z,5.38
2022-10-13T15:00:07.028Z,6.80
2022-10-13T15:02:36.175Z,5.60
2022-10-13T15:05:03.932Z,5.53
2022-10-13T15:07:31.700Z,6.10
2022-10-13T15:10:06.828Z,5.78
2022-10-13T15:12:35.035Z,6.57
2022-10-13T15:15:02.857Z,5.78
2022-10-13T15:17:31.612Z,5.70
2022-10-13T15:20:01.281Z,6.00
2022-10-13T15:22:29.142Z,6.18
2022-10-13T15:24:56.868Z,6.13
2022-10-13T15:27:25.431Z,5.68
2022-10-13T15:29:53.230Z,6.65
2022-10-13T15:32:21.868Z,5.63
2022-10-13T15:34:49.775Z,4.75
2022-10-13T15:37:19.023Z,4.93
2022-10-13T15:39:46.746Z,4.55
2022-10-13T15:42:14.647Z,4.32
2022-10-13T15:45:09.318Z,4.63
2022-10-13T15:47:30.420Z,4.45
2022-10-13T15:49:58.164Z,4.35
2022-10-13T15:52:32.208Z,4.35
2022-10-13T15:55:02.348Z,4.82
2022-10-13T15:57:31.570Z,4.30
2022-10-13T15:59:59.323Z,5.03
2022-10-13T16:02:27.036Z,5.05
2022-10-13T16:04:55.423Z,4.20
2022-10-13T16:07:23.156Z,4.10
2022-10-13T16:09:52.235Z,4.13
2022-10-13T16:12:20.274Z,4.82
2022-10-13T16:14:48.283Z,4.10
2022-10-13T16:17:16.085Z,4.38
2022-10-13T16:19:44.051Z,4.30
2022-10-13T16:22:12.072Z,4.50
2022-10-13T16:24:40.040Z,3.88
2022-10-13T16:27:09.616Z,5.20
2022-10-13T16:29:37.532Z,3.90
2022-10-13T16:32:05.397Z,4.55
2022-10-13T16:34:33.320Z,4.38
2022-10-13T16:37:01.035Z,4.65
2022-10-13T16:39:28.801Z,4.15
2022-10-13T16:41:56.668Z,4.25
2022-10-13T16:44:26.108Z,3.92
2022-10-13T16:46:53.915Z,3.67
2022-10-13T16:49:21.632Z,4.13
2022-10-13T16:51:49.663Z,4.32
2022-10-13T16:54:17.530Z,4.57
2022-10-13T16:56:45.560Z,3.92
2022-10-13T16:59:13.333Z,4.65
2022-10-13T17:01:42.471Z,5.38
2022-10-13T17:04:10.271Z,5.60
2022-10-13T17:06:39.445Z,4.78
2022-10-13T17:09:07.236Z,5.53
2022-10-13T17:11:37.210Z,4.85
2022-10-13T17:14:06.724Z,6.72
2022-10-13T17:16:35.875Z,6.20
2022-10-13T17:19:05.057Z,6.78
2022-10-13T17:21:32.912Z,5.72
2022-10-13T17:24:00.716Z,6.10
2022-10-13T17:26:28.642Z,6.30
2022-10-13T17:28:56.448Z,6.43
2022-10-13T17:31:25.277Z,5.72
2022-10-13T17:33:54.633Z,5.80
2022-10-13T17:36:25.787Z,5.15
2022-10-13T17:38:55.894Z,5.35
2022-10-13T17:41:24.867Z,6.15
2022-10-13T17:43:54.475Z,5.57
2022-10-13T17:46:36.258Z,6.35
2022-10-13T17:49:05.366Z,5.80
2022-10-13T17:51:34.749Z,5.72
2022-10-13T17:54:02.747Z,5.53
2022-10-13T17:56:30.986Z,6.30
2022-10-13T17:59:00.248Z,5.68
2022-10-13T18:01:30.050Z,5.18
2022-10-13T18:03:59.785Z,6.13
2022-10-13T18:06:31.468Z,6.22
2022-10-13T18:09:07.095Z,6.70
2022-10-13T18:11:35.220Z,5.82
2022-10-13T18:14:03.530Z,6.25
2022-10-13T18:16:31.406Z,6.93
2022-10-13T18:18:59.217Z,5.70
2022-10-13T18:21:27.457Z,6.25
2022-10-13T18:23:56.384Z,6.78
2022-10-13T18:26:26.474Z,6.85
2022-10-13T18:28:54.948Z,6.85
2022-10-13T18:31:24.863Z,6.40
2022-10-13T18:33:53.240Z,5.15
2022-10-13T18:36:23.561Z,6.38
2022-10-13T18:38:52.222Z,5.60
2022-10-13T18:41:22.486Z,7.72
2022-10-13T18:43:51.889Z,5.93
2022-10-13T18:46:20.273Z,5.85
2022-10-13T18:48:48.304Z,5.72
2022-10-13T18:51:17.766Z,5.68
2022-10-13T18:53:47.090Z,5.70
2022-10-13T18:56:16.311Z,5.57
2022-10-13T18:58:44.103Z,6.07
2022-10-13T19:01:17.282Z,5.57
2022-10-13T19:03:46.132Z,5.50
2022-10-13T19:06:15.179Z,5.80
2022-10-13T19:08:43.784Z,5.95
2022-10-13T19:11:12.894Z,5.57
2022-10-13T19:13:40.788Z,5.13
2022-10-13T19:16:09.161Z,5.70
2022-10-13T19:18:38.991Z,4.72
2022-10-13T19:21:07.427Z,4.75
2022-10-13T19:23:35.416Z,5.47
2022-10-13T19:26:11.161Z,4.90
2022-10-13T19:28:41.915Z,4.75
2022-10-13T19:31:10.605Z,4.95
2022-10-13T19:33:44.653Z,5.10
2022-10-13T19:36:20.371Z,4.75
2022-10-13T19:38:48.101Z,5.03
2022-10-13T19:41:17.614Z,5.75
2022-10-13T19:43:45.409Z,5.05
2022-10-13T19:46:13.707Z,4.82
2022-10-13T19:48:43.271Z,4.93
2022-10-13T19:51:11.378Z,4.70
2022-10-13T19:53:39.744Z,4.85
2022-10-13T19:56:08.536Z,4.53
2022-10-13T19:58:36.711Z,4.78
2022-10-13T20:01:08.281Z,4.93
2022-10-13T20:03:36.606Z,5.47
2022-10-13T20:06:07.324Z,4.55
2022-10-13T20:08:35.035Z,4.60
2022-10-13T20:11:07.354Z,5.03
2022-10-13T20:13:35.109Z,4.72
2022-10-13T20:16:07.068Z,4.68
2022-10-13T20:18:35.888Z,4.47
2022-10-13T20:21:04.730Z,4.93
2022-10-13T20:23:34.558Z,4.57
2022-10-13T20:26:06.757Z,4.65
2022-10-13T20:28:40.559Z,4.78
2022-10-13T20:31:11.533Z,4.30
2022-10-13T20:33:40.112Z,4.07
2022-10-13T20:36:09.644Z,4.38
2022-10-13T20:38:39.394Z,5.18
2022-10-13T20:41:07.982Z,4.68
2022-10-13T20:43:35.810Z,4.97
2022-10-13T20:46:05.441Z,5.57
2022-10-13T20:48:57.822Z,5.50
2022-10-13T20:51:24.384Z,5.53
2022-10-13T20:53:53.674Z,5.10
2022-10-13T20:56:23.279Z,5.05
2022-10-13T20:58:51.687Z,5.53
2022-10-13T21:01:21.633Z,5.63
2022-10-13T21:03:52.872Z,5.18
2022-10-13T21:06:21.149Z,5.45
2022-10-13T21:08:49.112Z,5.57
2022-10-13T21:11:20.149Z,6.85
2022-10-13T21:13:49.674Z,6.88
2022-10-13T21:16:19.641Z,6.82
2022-10-13T21:18:49.253Z,6.25
2022-10-13T21:21:19.452Z,5.55
2022-10-13T21:23:50.189Z,5.70
2022-10-13T21:26:22.007Z,5.70
2022-10-13T21:28:50.969Z,5.50
2022-10-13T21:31:20.164Z,5.10
2022-10-13T21:33:47.893Z,5.57
2022-10-13T21:36:17.452Z,6.03
2022-10-13T21:38:46.457Z,6.00
2022-10-13T21:41:15.423Z,4.85
2022-10-13T21:43:44.547Z,4.65
2022-10-13T21:46:13.979Z,6.13
2022-10-13T21:48:42.067Z,4.63
2022-10-13T21:51:15.370Z,5.50
2022-10-13T21:53:43.880Z,5.70
2022-10-13T21:56:12.617Z,5.10
2022-10-13T21:58:40.835Z,5.00
2022-10-13T22:01:10.299Z,4.90
2022-10-13T22:03:38.226Z,5.10
2022-10-13T22:06:08.001Z,5.55
2022-10-13T22:08:38.976Z,5.07
2022-10-13T22:11:08.774Z,5.40
2022-10-13T22:13:36.975Z,4.95
2022-10-13T22:16:06.068Z,4.85
2022-10-13T22:18:35.271Z,5.45
2022-10-13T22:21:03.391Z,4.63
2022-10-13T22:23:31.556Z,5.00
2022-10-13T22:25:59.350Z,4.82
2022-10-13T22:28:27.360Z,4.93
2022-10-13T22:30:55.202Z,4.85
2022-10-13T22:33:23.139Z,4.90
2022-10-13T22:35:52.232Z,5.05
2022-10-13T22:38:19.966Z,4.85
2022-10-13T22:40:47.667Z,4.80
2022-10-13T22:43:15.382Z,5.10
2022-10-13T22:45:51.292Z,5.38
2022-10-13T22:48:19.070Z,4.72
2022-10-13T22:50:46.898Z,4.95
2022-10-13T22:53:16.143Z,4.97
2022-10-13T22:55:43.862Z,5.32
2022-10-13T22:58:11.971Z,4.93
2022-10-13T23:00:40.675Z,4.95
2022-10-13T23:03:08.484Z,5.28
2022-10-13T23:05:36.240Z,5.40
2022-10-13T23:08:03.975Z,4.93
2022-10-13T23:10:33.060Z,5.25
2022-10-13T23:13:00.815Z,4.75
2022-10-13T23:15:28.626Z,5.50
2022-10-13T23:17:56.392Z,4.43
2022-10-13T23:20:24.466Z,5.47
2022-10-13T23:22:52.553Z,5.85
2022-10-13T23:25:20.329Z,4.75
2022-10-13T23:27:49.475Z,6.05
2022-10-13T23:30:17.722Z,5.22
2022-10-13T23:32:45.663Z,4.40
2022-10-13T23:35:13.422Z,5.03
2022-10-13T23:37:41.429Z,5.13
2022-10-13T23:40:10.335Z,5.38
2022-10-13T23:42:38.162Z,5.05
2022-10-13T23:45:08.205Z,5.72
2022-10-13T23:47:35.970Z,5.03
2022-10-13T23:50:03.772Z,4.80
2022-10-13T23:52:31.547Z,4.68
2022-10-13T23:54:59.291Z,5.43
2022-10-13T23:57:27.006Z,5.68
2022-10-13T23:59:54.861Z,5.15
